Time;durP1;ratioP1;P1;durP2;ratioP2;P2;SDS_P1;SDS_P2;PMS_P1;PMS_P2;Temp;Humidity;BMP_temperature;BMP_pressure;BME280_temperature;BME280_humidity;BME280_pressure;Samples;Min_cycle;Max_cycle;Signal;HPM_P1;HPM_P2
2021/09/22 00:02:03;;;;;;;0.25;0.25;;;;;;;15.75;59.03;103094.91;5071409;28;20040;-85
2021/09/22 00:04:29;;;;;;;0.10;0.10;;;;;;;15.74;59.47;103103.81;5074362;28;20024;-88
2021/09/22 00:06:55;;;;;;;0.00;0.00;;;;;;;15.73;59.82;103091.34;5075852;28;20029;-87
2021/09/22 00:09:22;;;;;;;0.22;0.22;;;;;;;15.72;59.62;103089.56;5075637;28;20024;-82
2021/09/22 00:11:48;;;;;;;1.45;1.45;;;;;;;15.71;59.89;103093.13;5041577;28;20029;-89
2021/09/22 00:14:15;;;;;;;0.20;0.20;;;;;;;15.71;60.06;103094.91;5076053;28;20082;-88
2021/09/22 00:16:41;;;;;;;0.10;0.10;;;;;;;15.68;60.07;103099.38;5075742;28;20032;-88
2021/09/22 00:19:08;;;;;;;0.03;0.03;;;;;;;15.69;60.01;103094.94;5076337;28;20033;-90
2021/09/22 00:21:34;;;;;;;0.10;0.10;;;;;;;15.66;59.88;103100.28;5075647;28;20036;-84
2021/09/22 00:24:01;;;;;;;0.20;0.20;;;;;;;15.65;59.69;103101.16;5057423;28;20365;-86
2021/09/22 00:26:28;;;;;;;0.10;0.10;;;;;;;15.64;60.03;103096.75;5068011;28;20074;-86
2021/09/22 00:28:55;;;;;;;0.40;0.40;;;;;;;15.61;60.25;103102.09;5075422;28;20119;-88
2021/09/22 00:31:21;;;;;;;0.28;0.28;;;;;;;15.61;60.41;103107.44;5075484;28;20119;-88
2021/09/22 00:33:48;;;;;;;0.08;0.08;;;;;;;15.60;60.06;103100.31;5075072;28;20024;-91
2021/09/22 00:36:14;;;;;;;0.10;0.10;;;;;;;15.58;60.40;103097.66;5075182;28;20021;-85
2021/09/22 00:38:41;;;;;;;0.20;0.20;;;;;;;15.56;60.36;103093.22;5074927;28;20422;-87
2021/09/22 00:41:08;;;;;;;0.10;0.10;;;;;;;15.54;60.46;103093.22;5079560;28;20048;-80
2021/09/22 00:43:34;;;;;;;0.13;0.13;;;;;;;15.48;60.78;103095.94;5074978;28;20020;-88
2021/09/22 00:46:04;;;;;;;0.10;0.10;;;;;;;15.45;60.15;103094.16;5074776;28;20418;-87
2021/09/22 00:48:33;;;;;;;0.08;0.08;;;;;;;15.46;60.79;103098.56;5074995;28;20387;-89
2021/09/22 00:51:03;;;;;;;0.10;0.10;;;;;;;15.45;60.85;103096.81;5074843;28;20051;-89
2021/09/22 00:53:30;;;;;;;0.00;0.00;;;;;;;15.43;60.89;103097.72;5074913;28;20028;-87
2021/09/22 00:55:58;;;;;;;0.10;0.10;;;;;;;15.40;60.96;103098.59;5077899;28;20025;-87
2021/09/22 00:58:26;;;;;;;0.05;0.05;;;;;;;15.38;60.95;103092.41;5078158;28;20490;-88
2021/09/22 01:00:52;;;;;;;2.97;0.63;;;;;;;15.35;61.62;103097.72;5074510;28;20132;-90
2021/09/22 01:03:19;;;;;;;0.10;0.10;;;;;;;15.33;60.98;103091.53;5057801;28;20029;-91
2021/09/22 01:05:46;;;;;;;0.10;0.10;;;;;;;15.31;61.81;103093.31;5054699;28;20056;-88
2021/09/22 01:08:17;;;;;;;0.10;0.10;;;;;;;15.33;61.04;103089.72;5054515;28;20056;-89
2021/09/22 01:10:46;;;;;;;0.10;0.10;;;;;;;15.31;61.83;103085.28;5054712;28;20434;-90
2021/09/22 01:13:14;;;;;;;0.10;0.10;;;;;;;15.30;62.16;103078.16;5054219;28;20104;-81
2021/09/22 01:15:43;;;;;;;0.10;0.10;;;;;;;15.31;61.71;103077.28;5054740;28;20036;-91
2021/09/22 01:18:15;;;;;;;0.10;0.10;;;;;;;15.31;61.15;103066.59;5054428;28;20028;-90
2021/09/22 01:20:45;;;;;;;0.10;0.10;;;;;;;15.30;62.13;103073.75;5054627;28;20048;-89
2021/09/22 01:23:15;;;;;;;0.10;0.10;;;;;;;15.28;62.77;103067.50;5067665;28;20071;-88
2021/09/22 01:25:44;;;;;;;0.17;0.17;;;;;;;15.28;61.79;103064.84;5074128;28;20028;-86
2021/09/22 01:28:12;;;;;;;0.10;0.10;;;;;;;15.28;63.18;103067.50;5074632;28;20024;-89
2021/09/22 01:30:40;;;;;;;0.10;0.10;;;;;;;15.28;61.70;103067.50;5073711;28;20024;-85
2021/09/22 01:33:10;;;;;;;0.10;0.10;;;;;;;15.30;62.36;103064.81;5074094;28;20024;-82
2021/09/22 01:35:39;;;;;;;0.10;0.10;;;;;;;15.29;61.44;103063.03;5073658;28;20029;-89
2021/09/22 01:38:08;;;;;;;0.77;0.77;;;;;;;15.28;62.27;103054.16;5073933;28;20050;-87
2021/09/22 01:40:35;;;;;;;0.10;0.10;;;;;;;15.27;61.87;103059.50;5073845;28;20063;-89
2021/09/22 01:43:02;;;;;;;0.05;0.05;;;;;;;15.24;62.17;103063.09;5073873;28;20028;-88
2021/09/22 01:45:28;;;;;;;0.10;0.10;;;;;;;15.25;62.12;103072.84;5074052;28;20028;-83
2021/09/22 01:47:55;;;;;;;0.65;0.65;;;;;;;15.26;62.45;103065.75;5074370;28;20067;-86
2021/09/22 01:50:22;;;;;;;0.10;0.10;;;;;;;15.25;61.73;103071.97;5074460;28;20027;-90
2021/09/22 01:52:50;;;;;;;0.10;0.10;;;;;;;15.25;62.82;103074.63;5074698;28;20035;-86
2021/09/22 01:55:20;;;;;;;1.02;1.02;;;;;;;15.24;62.39;103070.19;5074960;28;20430;-87
2021/09/22 01:57:47;;;;;;;0.20;0.20;;;;;;;15.23;62.16;103069.31;5053793;28;20044;-85
2021/09/22 02:00:14;;;;;;;0.00;0.00;;;;;;;15.23;62.51;103073.75;5060648;28;20105;-90
2021/09/22 02:02:41;;;;;;;0.17;0.17;;;;;;;15.20;62.27;103074.66;5064001;28;20060;-88
2021/09/22 02:05:08;;;;;;;0.10;0.10;;;;;;;15.19;62.54;103079.13;5053648;28;20064;-89
2021/09/22 02:07:35;;;;;;;0.00;0.00;;;;;;;15.18;62.21;103081.78;5070702;28;20033;-91
2021/09/22 02:10:04;;;;;;;0.10;0.10;;;;;;;15.15;62.79;103071.09;5075302;28;20111;-91
2021/09/22 02:12:30;;;;;;;0.52;0.52;;;;;;;15.15;61.82;103074.69;5075596;28;20032;-89
2021/09/22 02:14:57;;;;;;;0.10;0.10;;;;;;;15.14;62.96;103070.22;5075599;28;20037;-87
2021/09/22 02:17:24;;;;;;;0.20;0.20;;;;;;;15.13;62.72;103057.78;5076748;28;20111;-92
2021/09/22 02:19:50;;;;;;;0.45;0.40;;;;;;;15.11;64.40;103061.34;5089647;28;20092;-83
2021/09/22 02:22:17;;;;;;;0.10;0.10;;;;;;;15.09;63.53;103066.69;5092619;28;20017;-80
2021/09/22 02:24:44;;;;;;;0.50;0.50;;;;;;;15.08;63.26;103054.22;5092279;28;20013;-80
2021/09/22 02:27:14;;;;;;;0.10;0.10;;;;;;;15.10;62.96;103049.75;5092443;28;20047;-79
2021/09/22 02:29:41;;;;;;;0.30;0.30;;;;;;;15.09;62.79;103057.78;5091467;28;20094;-83
2021/09/22 02:32:08;;;;;;;0.10;0.10;;;;;;;15.07;62.48;103047.13;5081263;28;20078;-80
2021/09/22 02:34:35;;;;;;;0.10;0.10;;;;;;;15.07;63.94;103046.25;5073594;28;20123;-82
2021/09/22 02:37:02;;;;;;;1.40;1.30;;;;;;;15.08;63.01;103043.56;5074187;28;20032;-87
2021/09/22 02:39:29;;;;;;;0.15;0.15;;;;;;;15.08;62.60;103048.91;5073782;28;20028;-82
2021/09/22 02:41:55;;;;;;;0.30;0.30;;;;;;;15.08;62.97;103051.56;5075178;28;20114;-81
2021/09/22 02:44:25;;;;;;;0.52;0.28;;;;;;;15.09;63.26;103040.00;5077401;28;20375;-80
2021/09/22 02:46:52;;;;;;;0.10;0.10;;;;;;;15.08;63.02;103047.97;5047910;28;20033;-81
2021/09/22 02:49:20;;;;;;;0.40;0.40;;;;;;;15.10;63.01;103048.88;5072491;28;20402;-80
2021/09/22 02:51:47;;;;;;;0.10;0.10;;;;;;;15.07;63.62;103041.78;5077517;28;20434;-83
2021/09/22 02:54:14;;;;;;;0.10;0.10;;;;;;;15.09;62.23;103045.34;5076928;28;20488;-81
2021/09/22 02:56:40;;;;;;;0.10;0.10;;;;;;;15.08;63.10;103038.22;5076853;28;20036;-80
2021/09/22 02:59:07;;;;;;;0.10;0.10;;;;;;;15.08;62.74;103037.31;5076951;28;20525;-81
2021/09/22 03:01:34;;;;;;;0.08;0.08;;;;;;;15.07;63.36;103043.56;5075978;28;20098;-81
2021/09/22 03:04:01;;;;;;;0.10;0.10;;;;;;;15.04;63.39;103042.69;5072411;28;20391;-81
2021/09/22 03:06:28;;;;;;;0.80;0.80;;;;;;;15.04;62.70;103037.34;5076735;28;20025;-80
2021/09/22 03:08:54;;;;;;;0.10;0.10;;;;;;;15.05;63.22;103038.22;5063831;28;20383;-82
2021/09/22 03:11:20;;;;;;;0.95;0.95;;;;;;;15.04;63.49;103037.34;5056641;28;20018;-80
2021/09/22 03:13:47;;;;;;;0.30;0.30;;;;;;;15.02;63.04;103033.78;5056513;28;20036;-81
2021/09/22 03:16:13;;;;;;;0.03;0.03;;;;;;;15.03;63.89;103024.00;5063025;28;20405;-80
2021/09/22 03:18:40;;;;;;;0.20;0.20;;;;;;;15.03;63.74;103024.00;5076636;28;20494;-81
2021/09/22 03:21:07;;;;;;;0.20;0.20;;;;;;;15.01;63.37;103020.44;5076586;28;20055;-81
2021/09/22 03:23:33;;;;;;;0.10;0.10;;;;;;;15.00;63.47;103024.00;5076518;28;20025;-80
2021/09/22 03:25:59;;;;;;;0.10;0.10;;;;;;;14.97;63.39;103024.03;5076994;28;20380;-81
2021/09/22 03:28:26;;;;;;;0.30;0.30;;;;;;;14.96;63.24;103024.91;5076340;28;20020;-82
2021/09/22 03:30:53;;;;;;;0.10;0.10;;;;;;;14.93;62.84;103023.13;5076152;28;20040;-81
2021/09/22 03:33:19;;;;;;;0.10;0.10;;;;;;;14.92;62.71;103020.50;5076410;28;20119;-82
2021/09/22 03:35:46;;;;;;;0.55;0.55;;;;;;;14.88;63.10;103019.59;5076072;28;20032;-81
2021/09/22 03:38:12;;;;;;;0.88;0.43;;;;;;;14.87;62.84;103018.69;5062425;28;20463;-81
2021/09/22 03:40:39;;;;;;;0.20;0.20;;;;;;;14.87;62.66;103025.81;5076087;28;20036;-81
2021/09/22 03:43:05;;;;;;;0.55;0.55;;;;;;;14.85;62.67;103017.84;5076156;28;20162;-82
2021/09/22 03:45:32;;;;;;;0.30;0.30;;;;;;;14.84;62.56;103017.81;5075973;28;20024;-83
2021/09/22 03:47:58;;;;;;;1.10;0.65;;;;;;;14.82;62.90;103019.63;5076189;28;20017;-80
2021/09/22 03:50:25;;;;;;;1.17;1.10;;;;;;;14.79;62.90;103017.84;5075797;28;20028;-81
2021/09/22 03:52:51;;;;;;;0.00;0.00;;;;;;;14.77;63.28;103024.09;5075864;28;20051;-80
2021/09/22 03:55:17;;;;;;;0.00;0.00;;;;;;;14.72;63.75;103014.28;5075569;28;20090;-81
2021/09/22 03:57:44;;;;;;;0.10;0.10;;;;;;;14.69;64.16;103010.75;5075935;28;20025;-81
2021/09/22 04:00:12;;;;;;;0.38;0.38;;;;;;;14.71;63.40;103006.31;5075473;28;20479;-80
2021/09/22 04:02:38;;;;;;;0.00;0.00;;;;;;;14.70;63.80;103001.84;5076066;28;20053;-83
2021/09/22 04:05:05;;;;;;;0.38;0.38;;;;;;;14.69;63.46;103002.75;5075775;28;20498;-82
2021/09/22 04:07:31;;;;;;;0.10;0.10;;;;;;;14.67;64.16;103001.88;5075416;28;20115;-87
2021/09/22 04:09:57;;;;;;;0.25;0.25;;;;;;;14.66;65.14;103005.44;5075638;28;20035;-82
2021/09/22 04:12:24;;;;;;;0.10;0.10;;;;;;;14.65;64.08;103004.53;5075164;28;20452;-83
2021/09/22 04:14:50;;;;;;;0.13;0.13;;;;;;;14.66;63.41;103008.09;5075523;28;20064;-82
2021/09/22 04:17:16;;;;;;;0.10;0.10;;;;;;;14.66;64.22;103008.09;5075457;28;20032;-83
2021/09/22 04:19:42;;;;;;;0.10;0.10;;;;;;;14.67;64.29;103001.88;5075255;28;20029;-82
2021/09/22 04:22:08;;;;;;;1.45;0.93;;;;;;;14.67;63.96;102999.22;5075347;28;20024;-82
2021/09/22 04:24:35;;;;;;;0.00;0.00;;;;;;;14.64;65.02;103009.84;5075098;28;20399;-81
2021/09/22 04:27:05;;;;;;;0.93;0.93;;;;;;;14.69;64.78;103013.41;5074866;28;20182;-80
2021/09/22 04:29:32;;;;;;;0.10;0.10;;;;;;;14.66;64.36;103006.31;5075234;28;20040;-80
2021/09/22 04:31:58;;;;;;;0.10;0.10;;;;;;;14.66;64.08;103008.09;5075013;28;20477;-80
2021/09/22 04:34:24;;;;;;;0.25;0.25;;;;;;;14.66;64.60;103016.09;5075174;28;20051;-81
2021/09/22 04:36:50;;;;;;;0.40;0.40;;;;;;;14.64;64.29;103015.16;5075046;28;20464;-83
2021/09/22 04:39:17;;;;;;;0.30;0.30;;;;;;;14.66;64.65;103013.44;5075004;28;20467;-82
2021/09/22 04:41:43;;;;;;;1.00;1.00;;;;;;;14.65;65.16;103022.31;5074656;28;20126;-83
2021/09/22 04:44:10;;;;;;;1.10;1.00;;;;;;;14.63;65.19;103018.72;5074587;28;20027;-82
2021/09/22 04:46:37;;;;;;;0.20;0.20;;;;;;;14.64;64.96;103015.16;5074782;28;20051;-86
2021/09/22 04:49:05;;;;;;;0.10;0.10;;;;;;;14.64;64.50;103015.16;5074716;28;20021;-82
2021/09/22 04:51:31;;;;;;;0.05;0.05;;;;;;;14.61;64.59;103015.19;5074646;28;20078;-81
2021/09/22 04:53:57;;;;;;;0.50;0.50;;;;;;;14.60;64.72;103021.41;5074846;28;20025;-81
2021/09/22 04:56:23;;;;;;;0.70;0.70;;;;;;;14.57;64.58;103015.19;5074830;28;20024;-85
2021/09/22 04:58:50;;;;;;;0.10;0.10;;;;;;;14.59;64.80;103012.50;5074731;28;20059;-83
2021/09/22 05:01:16;;;;;;;0.63;0.63;;;;;;;14.59;64.82;103017.84;5073879;28;20478;-84
2021/09/22 05:03:42;;;;;;;1.08;1.08;;;;;;;14.56;64.21;103016.06;5055358;28;20024;-89
2021/09/22 05:06:08;;;;;;;0.40;0.40;;;;;;;14.57;64.94;103020.53;5053964;28;20108;-81
2021/09/22 05:08:37;;;;;;;0.10;0.10;;;;;;;14.57;65.27;103025.84;5054759;28;20153;-87
2021/09/22 05:11:03;;;;;;;0.40;0.40;;;;;;;14.57;64.50;103025.84;5068177;28;20028;-87
2021/09/22 05:13:29;;;;;;;0.10;0.10;;;;;;;14.56;64.33;103032.06;5074692;28;20056;-87
2021/09/22 05:15:55;;;;;;;0.70;0.70;;;;;;;14.57;64.49;103027.66;5074104;28;20043;-88
2021/09/22 05:18:28;;;;;;;1.65;1.58;;;;;;;14.58;64.51;103032.09;5074743;28;20056;-90
2021/09/22 05:20:54;;;;;;;0.00;0.00;;;;;;;14.57;64.96;103033.84;5065855;28;20131;-84
2021/09/22 05:23:21;;;;;;;0.10;0.10;;;;;;;14.56;65.62;103032.06;5059423;28;20059;-85
2021/09/22 05:25:47;;;;;;;0.47;0.47;;;;;;;14.55;65.70;103035.66;5072921;28;20032;-87
2021/09/22 05:28:13;;;;;;;0.10;0.10;;;;;;;14.59;64.91;103030.31;5061187;28;20459;-88
2021/09/22 05:30:39;;;;;;;0.10;0.10;;;;;;;14.58;65.75;103037.44;5074521;28;20031;-87
2021/09/22 05:33:10;;;;;;;0.10;0.10;;;;;;;14.61;65.84;103039.22;5064987;28;20029;-91
2021/09/22 05:35:37;;;;;;;0.10;0.10;;;;;;;14.61;65.48;103036.53;5071987;28;20081;-87
2021/09/22 05:38:04;;;;;;;0.38;0.38;;;;;;;14.61;65.51;103028.53;5074053;28;20025;-90
2021/09/22 05:40:30;;;;;;;0.10;0.10;;;;;;;14.60;64.52;103024.09;5074211;28;20033;-91
2021/09/22 05:42:57;;;;;;;0.20;0.20;;;;;;;14.62;64.96;103027.66;5062867;28;20163;-92
2021/09/22 05:45:24;;;;;;;0.30;0.30;;;;;;;14.61;65.46;103018.72;5074297;28;20030;-91
2021/09/22 05:47:50;;;;;;;0.43;0.43;;;;;;;14.62;65.37;103027.66;5068578;28;20044;-90
2021/09/22 05:50:16;;;;;;;0.43;0.43;;;;;;;14.63;64.62;103022.31;5071545;28;20025;-91
2021/09/22 05:52:43;;;;;;;0.50;0.47;;;;;;;14.63;64.95;103035.63;5073008;28;20029;-85
2021/09/22 05:55:09;;;;;;;0.30;0.30;;;;;;;14.64;65.39;103031.19;5056262;28;20130;-90
2021/09/22 05:57:35;;;;;;;0.20;0.20;;;;;;;14.67;65.53;103032.09;5073715;28;20407;-92
2021/09/22 06:00:12;;;;;;;0.17;0.17;;;;;;;14.68;65.25;103033.00;5068659;28;20036;-92
2021/09/22 06:02:38;;;;;;;0.00;0.00;;;;;;;14.67;65.74;103033.88;5064597;28;20033;-89
2021/09/22 06:05:05;;;;;;;0.10;0.10;;;;;;;14.69;65.20;103035.66;5072824;28;20032;-88
2021/09/22 06:07:31;;;;;;;0.28;0.28;;;;;;;14.71;65.40;103036.53;5072695;28;20025;-88
2021/09/22 06:09:58;;;;;;;1.67;1.58;;;;;;;14.74;65.52;103032.97;5065457;28;20036;-86
2021/09/22 06:12:24;;;;;;;0.20;0.20;;;;;;;14.77;65.49;103034.75;5073931;28;20052;-88
2021/09/22 06:14:51;;;;;;;0.13;0.13;;;;;;;14.78;65.13;103034.75;5073779;28;20032;-88
2021/09/22 06:17:17;;;;;;;0.20;0.20;;;;;;;14.82;65.17;103036.50;5073321;28;20065;-88
2021/09/22 06:19:43;;;;;;;0.00;0.00;;;;;;;14.85;65.09;103031.19;5073394;28;20060;-88
2021/09/22 06:22:09;;;;;;;1.13;1.00;;;;;;;14.87;65.07;103031.16;5073983;28;20108;-89
2021/09/22 06:24:35;;;;;;;0.22;0.22;;;;;;;14.88;65.62;103030.28;5072967;28;20036;-89
2021/09/22 06:45:42;;;;;;;0.20;0.20;;;;;;;15.21;65.94;103041.72;5248016;22;20052;-91
2021/09/22 06:55:49;;;;;;;0.25;0.25;;;;;;;15.49;66.13;103052.28;4943621;28;20057;-90
2021/09/22 06:58:32;;;;;;;0.10;0.10;;;;;;;15.50;66.20;103046.94;5059768;28;20048;-92
2021/09/22 07:01:08;;;;;;;0.75;0.75;;;;;;;15.59;65.82;103043.31;5074290;28;20056;-93
2021/09/22 07:11:10;;;;;;;0.90;0.90;;;;;;;15.83;65.64;103054.78;4952281;29;20062;-92
2021/09/22 07:14:18;;;;;;;0.10;0.10;;;;;;;15.86;66.48;103054.75;4941288;28;20047;-91
2021/09/22 07:19:36;;;;;;;0.10;0.10;;;;;;;15.96;65.93;103067.16;5476425;22;20052;-95
2021/09/22 07:22:21;;;;;;;0.73;0.73;;;;;;;15.99;66.55;103067.13;5036564;28;20464;-91
2021/09/22 07:24:58;;;;;;;0.32;0.32;;;;;;;16.02;65.40;103066.22;5047145;28;20223;-90
2021/09/22 07:27:25;;;;;;;0.73;0.73;;;;;;;16.12;65.68;103065.25;5052116;28;20029;-91
2021/09/22 07:30:15;;;;;;;0.57;0.57;;;;;;;16.27;65.61;103063.34;5036853;28;20025;-91
2021/09/22 07:32:43;;;;;;;0.25;0.25;;;;;;;16.25;66.30;103063.38;5026529;28;20145;-91
2021/09/22 07:35:10;;;;;;;0.10;0.10;;;;;;;16.31;65.29;103060.66;5035016;28;20026;-90
2021/09/22 07:37:36;;;;;;;1.08;0.95;;;;;;;16.41;65.76;103057.88;5034654;28;20065;-89
2021/09/22 07:40:04;;;;;;;1.38;1.27;;;;;;;16.50;65.86;103053.34;5034489;28;20030;-89
2021/09/22 07:42:33;;;;;;;2.05;1.23;;;;;;;16.61;65.59;103055.00;5034454;28;20076;-90
2021/09/22 07:56:20;;;;;;;0.95;0.52;;;;;;;16.92;65.01;103054.72;5469048;22;20443;-81
2021/09/22 07:58:46;;;;;;;1.38;1.27;;;;;;;17.06;64.96;103043.84;5054796;28;20512;-79
2021/09/22 08:01:13;;;;;;;0.40;0.40;;;;;;;17.14;64.08;103044.66;5054606;28;20043;-84
2021/09/22 08:03:41;;;;;;;0.82;0.82;;;;;;;17.23;64.24;103040.97;5054490;28;20041;-85
2021/09/22 08:06:07;;;;;;;0.60;0.60;;;;;;;17.29;64.03;103038.22;5054470;28;20392;-87
2021/09/22 08:08:34;;;;;;;1.30;1.25;;;;;;;17.42;63.44;103038.91;5054251;28;20537;-81
2021/09/22 08:11:00;;;;;;;0.10;0.10;;;;;;;17.45;63.81;103045.13;5054153;28;20500;-82
2021/09/22 08:13:27;;;;;;;0.50;0.50;;;;;;;17.56;63.23;103036.94;5054179;28;20037;-83
2021/09/22 08:15:53;;;;;;;1.45;1.13;;;;;;;17.58;63.21;103035.13;5054187;28;20480;-85
2021/09/22 08:18:19;;;;;;;0.88;0.63;;;;;;;17.67;62.87;103028.75;5054743;28;20135;-82
2021/09/22 08:20:45;;;;;;;0.77;0.75;;;;;;;17.79;62.66;103028.56;5053894;28;20025;-82
2021/09/22 08:23:11;;;;;;;0.75;0.75;;;;;;;17.83;62.48;103029.41;5054528;28;20469;-83
2021/09/22 08:25:38;;;;;;;0.30;0.30;;;;;;;18.02;62.43;103038.06;5054207;28;20503;-84
2021/09/22 08:35:22;;;;;;;0.68;0.68;;;;;;;18.33;61.19;103029.50;5036163;28;20060;-79
2021/09/22 08:37:49;;;;;;;0.60;0.60;;;;;;;18.44;60.99;103021.22;5055249;28;20018;-89
2021/09/22 08:40:15;;;;;;;5.63;1.02;;;;;;;18.52;60.95;103024.66;5055364;28;20555;-82
2021/09/22 08:42:41;;;;;;;0.30;0.30;;;;;;;18.60;60.81;103021.84;5055244;28;20100;-82
2021/09/22 08:45:11;;;;;;;2.60;2.40;;;;;;;18.66;60.65;103027.09;5054340;28;20025;-82
2021/09/22 08:47:39;;;;;;;0.77;0.77;;;;;;;18.84;60.62;103030.31;5054263;28;20029;-82
2021/09/22 08:50:06;;;;;;;0.60;0.25;;;;;;;18.95;60.04;103022.09;5055203;28;20036;-81
2021/09/22 08:52:32;;;;;;;0.70;0.70;;;;;;;19.02;59.57;103021.94;5054963;28;20025;-82
2021/09/22 08:54:58;;;;;;;3.38;1.17;;;;;;;19.20;59.72;103033.19;5054725;28;20079;-81
2021/09/22 08:57:25;;;;;;;3.17;1.17;;;;;;;19.24;59.22;103024.19;5053770;28;20025;-82
2021/09/22 08:59:51;;;;;;;2.08;1.20;;;;;;;19.41;59.45;103018.41;5054267;28;20048;-81
2021/09/22 09:02:20;;;;;;;0.30;0.30;;;;;;;19.46;58.66;103023.69;5054520;28;20117;-83
2021/09/22 09:05:00;;;;;;;1.05;1.05;;;;;;;19.59;58.87;103025.19;5054378;28;20602;-81
2021/09/22 09:07:29;;;;;;;0.60;0.60;;;;;;;19.60;58.08;103028.75;5054372;28;20480;-84
2021/09/22 09:10:06;;;;;;;2.33;2.08;;;;;;;19.79;58.32;103031.88;5054518;28;20060;-87
2021/09/22 09:12:33;;;;;;;1.95;1.85;;;;;;;19.87;58.44;103032.59;5054449;28;20095;-82
2021/09/22 09:15:06;;;;;;;0.65;0.63;;;;;;;20.00;57.58;103031.41;5054258;28;20475;-82
2021/09/22 09:17:50;;;;;;;4.32;0.82;;;;;;;20.23;57.17;103026.34;5054175;28;20026;-81
2021/09/22 09:25:45;;;;;;;0.10;0.10;;;;;;;20.40;56.31;103024.09;5086522;27;20419;-82
2021/09/22 09:28:17;;;;;;;1.70;1.60;;;;;;;20.43;56.46;103015.91;5070816;28;20450;-81
2021/09/22 09:30:47;;;;;;;0.95;0.90;;;;;;;20.47;56.21;103017.63;5070673;28;20028;-84
2021/09/22 09:38:56;;;;;;;0.55;0.55;;;;;;;20.65;56.44;103018.91;5090888;28;20869;-88
2021/09/22 09:44:11;;;;;;;0.63;0.63;;;;;;;20.78;55.70;103002.44;5090935;27;20439;-89
2021/09/22 09:46:39;;;;;;;0.10;0.10;;;;;;;20.90;55.36;102996.69;5058845;28;20536;-86
2021/09/22 09:49:09;;;;;;;0.52;0.52;;;;;;;20.98;54.37;103005.41;5050756;28;20064;-87
2021/09/22 09:51:39;;;;;;;0.90;0.90;;;;;;;21.16;54.79;102997.75;5050980;28;20451;-88
2021/09/22 09:54:23;;;;;;;0.40;0.40;;;;;;;21.33;53.65;102994.50;5050937;28;20075;-89
2021/09/22 09:56:54;;;;;;;1.65;1.55;;;;;;;21.41;53.30;102996.94;5050939;28;20108;-88
2021/09/22 09:59:23;;;;;;;2.00;1.52;;;;;;;21.47;52.42;102996.75;5045432;28;20026;-88
2021/09/22 10:04:31;;;;;;;0.13;0.13;;;;;;;21.67;53.42;102995.25;5091329;27;20416;-86
2021/09/22 10:06:57;;;;;;;0.40;0.40;;;;;;;21.71;52.72;103000.53;5057823;28;20124;-87
2021/09/22 10:09:23;;;;;;;1.00;0.77;;;;;;;21.73;52.18;102995.97;5054797;28;20029;-87
2021/09/22 10:11:50;;;;;;;0.52;0.52;;;;;;;21.79;51.62;102997.56;5057248;28;20059;-86
2021/09/22 10:14:18;;;;;;;1.95;1.05;;;;;;;21.88;50.62;103002.66;5061331;28;20075;-87
2021/09/22 10:16:48;;;;;;;0.95;0.93;;;;;;;21.90;49.95;102997.22;5061440;28;20055;-86
2021/09/22 10:19:14;;;;;;;0.77;0.60;;;;;;;21.98;50.62;102998.72;5059836;28;20479;-88
2021/09/22 10:21:40;;;;;;;0.13;0.13;;;;;;;22.04;50.38;102997.59;5054616;28;20042;-85
2021/09/22 10:24:10;;;;;;;0.10;0.10;;;;;;;22.12;50.43;102989.28;5051683;28;20029;-85
2021/09/22 10:26:38;;;;;;;6.03;0.73;;;;;;;22.15;49.66;102983.75;5050791;28;20060;-86
2021/09/22 10:29:23;;;;;;;1.45;1.08;;;;;;;22.26;49.14;102992.34;5050680;28;20029;-86
2021/09/22 10:31:49;;;;;;;1.98;1.17;;;;;;;22.35;49.70;102992.97;5050697;28;20021;-86
2021/09/22 10:34:36;;;;;;;0.32;0.32;;;;;;;22.47;49.05;102981.75;5050773;28;20036;-86
2021/09/22 10:37:31;;;;;;;0.35;0.30;;;;;;;22.62;49.03;102983.88;5050324;28;20025;-88
2021/09/22 10:39:57;;;;;;;0.73;0.73;;;;;;;22.61;47.81;102976.72;5050277;28;20025;-86
2021/09/22 10:42:30;;;;;;;0.73;0.73;;;;;;;22.79;48.57;102979.66;5050465;28;20040;-86
2021/09/22 10:45:18;;;;;;;0.20;0.20;;;;;;;22.86;46.81;102970.38;5050542;28;20037;-87
2021/09/22 10:47:45;;;;;;;0.77;0.43;;;;;;;22.89;47.23;102975.69;5050760;28;20025;-85
2021/09/22 10:50:34;;;;;;;0.20;0.20;;;;;;;23.04;47.60;102967.91;5050255;28;20025;-88
2021/09/22 10:53:00;;;;;;;0.95;0.32;;;;;;;23.15;47.50;102959.38;5050369;28;20061;-88
2021/09/22 10:55:28;;;;;;;1.25;1.15;;;;;;;23.29;47.54;102950.75;5065984;22;20091;-81
2021/09/22 10:58:12;;;;;;;0.17;0.17;;;;;;;23.44;45.95;102955.53;5048451;28;20037;-81
2021/09/22 11:00:39;;;;;;;1.55;1.38;;;;;;;23.32;45.81;102947.94;5050326;28;20024;-80
2021/09/22 11:03:06;;;;;;;0.10;0.10;;;;;;;23.40;46.41;102948.47;5049961;28;20493;-81
2021/09/22 11:08:12;;;;;;;0.10;0.10;;;;;;;23.41;45.30;102947.53;5091766;27;20452;-80
2021/09/22 11:10:42;;;;;;;0.10;0.10;;;;;;;23.48;45.55;102948.16;5071390;28;20029;-81
2021/09/22 11:16:14;;;;;;;0.20;0.20;;;;;;;23.68;45.70;102947.34;5070895;27;20422;-82
2021/09/22 11:18:45;;;;;;;1.33;1.23;;;;;;;23.73;45.64;102929.94;5071298;28;20033;-83
2021/09/22 11:21:11;;;;;;;0.30;0.30;;;;;;;23.79;45.38;102928.81;5070624;28;20025;-83
2021/09/22 11:23:40;;;;;;;0.98;0.95;;;;;;;23.87;45.58;102923.94;5071053;28;20029;-83
2021/09/22 11:26:09;;;;;;;0.50;0.50;;;;;;;23.92;45.28;102928.31;5070486;28;20032;-83
2021/09/22 11:28:37;;;;;;;0.10;0.10;;;;;;;24.01;44.45;102923.38;5070592;28;20060;-83
2021/09/22 11:31:03;;;;;;;0.28;0.28;;;;;;;24.05;43.51;102915.97;5070565;28;20037;-79
2021/09/22 11:33:29;;;;;;;0.38;0.22;;;;;;;24.20;44.17;102917.13;5070418;28;20112;-80
2021/09/22 11:36:06;;;;;;;1.45;0.93;;;;;;;24.21;42.06;102924.31;5070140;28;20040;-81
2021/09/22 11:38:34;;;;;;;0.10;0.10;;;;;;;24.30;41.86;102906.75;5070273;28;20029;-81
2021/09/22 11:41:01;;;;;;;8.60;0.65;;;;;;;24.38;42.17;102899.16;5070309;28;20085;-81
2021/09/22 11:43:27;;;;;;;0.28;0.28;;;;;;;24.46;43.05;102901.50;5070313;28;20025;-81
2021/09/22 11:45:59;;;;;;;0.35;0.35;;;;;;;24.53;42.84;102897.56;5070180;28;20032;-81
2021/09/22 11:48:30;;;;;;;0.20;0.20;;;;;;;24.39;42.28;102895.50;5070279;28;20396;-81
2021/09/22 11:50:58;;;;;;;0.25;0.25;;;;;;;24.47;42.25;102887.03;5069621;28;20024;-80
2021/09/22 11:53:30;;;;;;;0.30;0.30;;;;;;;24.62;41.89;102886.28;5069872;28;20120;-81
2021/09/22 11:55:57;;;;;;;1.23;1.13;;;;;;;24.71;42.34;102888.59;5069817;28;20033;-81
2021/09/22 11:58:27;;;;;;;0.45;0.45;;;;;;;24.85;41.58;102877.09;5069664;28;20041;-81
2021/09/22 12:00:55;;;;;;;1.10;0.63;;;;;;;24.84;41.00;102880.75;5070095;28;20036;-81
2021/09/22 12:03:24;;;;;;;0.93;0.93;;;;;;;24.90;39.91;102875.97;5069981;28;20036;-81
2021/09/22 12:06:14;;;;;;;1.05;1.05;;;;;;;25.04;41.18;102866.22;5069741;28;20025;-80
2021/09/22 12:08:43;;;;;;;0.20;0.20;;;;;;;25.09;40.54;102866.00;5069937;28;20086;-80
2021/09/22 12:11:13;;;;;;;0.40;0.40;;;;;;;25.18;41.36;102861.94;5069640;28;20029;-81
2021/09/22 12:13:41;;;;;;;0.70;0.40;;;;;;;25.23;39.34;102864.44;5069208;28;20063;-82
2021/09/22 12:16:08;;;;;;;0.65;0.65;;;;;;;25.38;40.69;102851.97;5069454;28;20410;-81
2021/09/22 12:18:35;;;;;;;0.85;0.85;;;;;;;25.28;40.43;102856.94;5069428;28;20120;-80
2021/09/22 12:21:01;;;;;;;0.17;0.17;;;;;;;25.34;40.09;102857.50;5068798;28;20048;-81
2021/09/22 12:23:31;;;;;;;0.10;0.10;;;;;;;25.42;39.84;102849.00;5069231;28;20120;-82
2021/09/22 12:26:19;;;;;;;0.10;0.10;;;;;;;25.46;40.19;102850.59;5064910;28;20121;-82
2021/09/22 12:28:45;;;;;;;0.10;0.10;;;;;;;25.52;39.84;102843.97;5056072;28;20036;-83
2021/09/22 12:31:16;;;;;;;0.68;0.68;;;;;;;25.52;38.49;102839.44;5056767;28;20434;-82
2021/09/22 12:33:43;;;;;;;0.30;0.30;;;;;;;25.60;39.60;102835.44;5056305;28;20048;-81
2021/09/22 12:36:13;;;;;;;0.20;0.20;;;;;;;25.76;39.67;102841.81;5056241;28;20052;-81
2021/09/22 12:38:49;;;;;;;0.10;0.10;;;;;;;25.94;39.84;102839.94;5056187;28;20333;-81
2021/09/22 12:41:16;;;;;;;0.50;0.50;;;;;;;25.80;38.29;102846.09;5056133;28;20036;-81
2021/09/22 12:43:43;;;;;;;2.50;1.55;;;;;;;25.83;37.68;102842.34;5056252;28;20029;-81
2021/09/22 12:46:13;;;;;;;0.30;0.30;;;;;;;25.79;37.94;102838.06;5055735;28;20025;-80
2021/09/22 12:48:40;;;;;;;0.13;0.13;;;;;;;25.46;37.29;102839.75;5055594;28;20063;-80